createdAt,value
2023-05-12T00:00:40.169Z,1370.00
2023-05-12T00:01:40.205Z,1370.00
2023-05-12T00:02:40.369Z,1368.00
2023-05-12T00:03:40.382Z,1367.00
2023-05-12T00:04:40.418Z,1368.00
2023-05-12T00:05:40.364Z,1366.00
2023-05-12T00:06:40.385Z,1364.00
2023-05-12T00:07:40.416Z,1361.00
2023-05-12T00:08:40.460Z,1358.00
2023-05-12T00:09:40.493Z,1351.00
2023-05-12T00:10:40.541Z,1350.00
2023-05-12T00:11:40.583Z,1350.00
2023-05-12T00:12:40.600Z,1352.00
2023-05-12T00:13:40.675Z,1350.00
2023-05-12T00:14:40.678Z,1351.00
2023-05-12T00:15:40.709Z,1348.00
2023-05-12T00:16:40.820Z,1345.00
2023-05-12T00:17:40.810Z,1342.00
2023-05-12T00:18:40.875Z,1345.00
2023-05-12T00:19:40.836Z,1343.00
2023-05-12T00:20:40.877Z,1340.00
2023-05-12T00:21:40.906Z,1342.00
2023-05-12T00:22:40.940Z,1341.00
2023-05-12T00:23:40.989Z,1339.00
2023-05-12T00:24:41.011Z,1339.00
2023-05-12T00:25:41.057Z,1340.00
2023-05-12T00:26:41.086Z,1338.00
2023-05-12T00:27:41.119Z,1338.00
2023-05-12T00:28:41.158Z,1338.00
2023-05-12T00:29:41.203Z,1338.00
2023-05-12T00:30:41.227Z,1338.00
2023-05-12T00:31:41.301Z,1333.00
2023-05-12T00:32:41.344Z,1328.00
2023-05-12T00:33:41.328Z,1328.00
2023-05-12T00:34:41.372Z,1328.00
2023-05-12T00:35:41.716Z,1328.00
2023-05-12T00:36:41.423Z,1327.00
2023-05-12T00:37:41.468Z,1324.00
2023-05-12T00:38:41.523Z,1321.00
2023-05-12T00:39:41.535Z,1321.00
2023-05-12T00:40:41.572Z,1322.00
2023-05-12T00:41:41.601Z,1319.00
2023-05-12T00:42:41.627Z,1319.00
2023-05-12T00:43:41.670Z,1317.00
2023-05-12T00:44:41.694Z,1317.00
2023-05-12T00:45:41.755Z,1316.00
2023-05-12T00:46:41.756Z,1317.00
2023-05-12T00:47:41.813Z,1315.00
2023-05-12T00:48:41.834Z,1310.00
2023-05-12T00:49:41.867Z,1309.00
2023-05-12T00:50:41.907Z,1314.00
2023-05-12T00:51:41.925Z,1316.00
2023-05-12T00:52:41.970Z,1315.00
2023-05-12T00:53:50.000Z,1315.00
2023-05-12T00:54:43.010Z,1314.00
2023-05-12T00:55:41.993Z,1313.00
2023-05-12T00:56:41.993Z,1313.00
2023-05-12T00:57:41.981Z,1309.00
2023-05-12T00:58:41.981Z,1305.00
2023-05-12T00:59:41.955Z,1302.00
2023-05-12T01:00:41.969Z,1301.00
2023-05-12T01:01:42.035Z,1301.00
2023-05-12T01:02:42.004Z,1299.00
2023-05-12T01:03:42.033Z,1302.00
2023-05-12T01:04:41.922Z,1300.00
2023-05-12T01:05:41.924Z,1302.00
2023-05-12T01:06:41.918Z,1301.00
2023-05-12T01:07:41.918Z,1300.00
2023-05-12T01:08:41.956Z,1299.00
2023-05-12T01:09:41.994Z,1296.00
2023-05-12T01:10:42.023Z,1294.00
2023-05-12T01:11:42.065Z,1295.00
2023-05-12T01:12:42.100Z,1298.00
2023-05-12T01:13:42.143Z,1298.00
2023-05-12T01:14:42.159Z,1293.00
2023-05-12T01:15:42.232Z,1292.00
2023-05-12T01:16:42.270Z,1294.00
2023-05-12T01:17:42.419Z,1292.00
2023-05-12T01:18:42.386Z,1289.00
2023-05-12T01:19:42.346Z,1290.00
2023-05-12T01:20:42.394Z,1291.00
2023-05-12T01:21:42.422Z,1291.00
2023-05-12T01:22:42.465Z,1289.00
2023-05-12T01:23:42.506Z,1289.00
2023-05-12T01:24:42.542Z,1287.00
2023-05-12T01:25:42.586Z,1287.00
2023-05-12T01:26:42.638Z,1288.00
2023-05-12T01:27:42.652Z,1284.00
2023-05-12T01:28:42.683Z,1281.00
2023-05-12T01:29:42.724Z,1278.00
2023-05-12T01:30:42.811Z,1278.00
2023-05-12T01:31:42.823Z,1283.00
2023-05-12T01:32:42.868Z,1284.00
2023-05-12T01:33:42.879Z,1281.00
2023-05-12T01:34:42.923Z,1274.00
2023-05-12T01:35:42.967Z,1273.00
2023-05-12T01:36:43.003Z,1270.00
2023-05-12T01:37:43.036Z,1270.00
2023-05-12T01:38:43.085Z,1272.00
2023-05-12T01:39:43.119Z,1274.00
2023-05-12T01:40:43.149Z,1273.00
2023-05-12T01:41:43.201Z,1272.00
2023-05-12T01:42:43.230Z,1269.00
2023-05-12T01:43:43.258Z,1266.00
2023-05-12T01:44:43.345Z,1265.00
2023-05-12T01:45:43.336Z,1264.00
2023-05-12T01:46:43.430Z,1267.00
2023-05-12T01:47:43.468Z,1265.00
2023-05-12T01:48:43.470Z,1267.00
2023-05-12T01:49:43.588Z,1268.00
2023-05-12T01:50:43.551Z,1269.00
2023-05-12T01:51:43.577Z,1269.00
2023-05-12T01:52:43.612Z,1271.00
2023-05-12T01:53:43.647Z,1269.00
2023-05-12T01:54:43.697Z,1268.00
2023-05-12T01:55:43.734Z,1266.00
2023-05-12T01:56:43.764Z,1265.00
2023-05-12T01:57:43.804Z,1265.00
2023-05-12T01:58:43.846Z,1263.00
2023-05-12T01:59:43.875Z,1263.00
2023-05-12T02:00:43.924Z,1262.00
2023-05-12T02:01:44.057Z,1261.00
2023-05-12T02:02:44.060Z,1261.00
2023-05-12T02:03:44.202Z,1261.00
2023-05-12T02:04:44.067Z,1259.00
2023-05-12T02:05:44.056Z,1257.00
2023-05-12T02:06:44.044Z,1256.00
2023-05-12T02:07:44.049Z,1254.00
2023-05-12T02:08:44.036Z,1252.00
2023-05-12T02:09:44.053Z,1252.00
2023-05-12T02:10:44.027Z,1252.00
2023-05-12T02:11:44.023Z,1250.00
2023-05-12T02:12:44.020Z,1253.00
2023-05-12T02:13:44.013Z,1255.00
2023-05-12T02:14:44.031Z,1254.00
2023-05-12T02:15:44.008Z,1252.00
2023-05-12T02:16:44.089Z,1256.00
2023-05-12T02:17:44.111Z,1255.00
2023-05-12T02:18:44.162Z,1253.00
2023-05-12T02:19:44.131Z,1251.00
2023-05-12T02:20:44.166Z,1251.00
2023-05-12T02:21:44.217Z,1250.00
2023-05-12T02:22:44.256Z,1248.00
2023-05-12T02:23:44.293Z,1248.00
2023-05-12T02:24:44.335Z,1245.00
2023-05-12T02:25:44.391Z,1244.00
2023-05-12T02:26:44.446Z,1245.00
2023-05-12T02:27:44.470Z,1245.00
2023-05-12T02:28:44.519Z,1245.00
2023-05-12T02:29:44.553Z,1242.00
2023-05-12T02:30:44.594Z,1243.00
2023-05-12T02:31:44.804Z,1244.00
2023-05-12T02:32:44.717Z,1245.00
2023-05-12T02:33:44.727Z,1245.00
2023-05-12T02:34:44.781Z,1245.00
2023-05-12T02:35:44.814Z,1244.00
2023-05-12T02:36:44.855Z,1245.00
2023-05-12T02:37:44.891Z,1244.00
2023-05-12T02:38:44.940Z,1245.00
2023-05-12T02:39:44.985Z,1246.00
2023-05-12T02:40:45.037Z,1247.00
2023-05-12T02:41:45.076Z,1246.00
2023-05-12T02:42:45.118Z,1238.00
2023-05-12T02:43:45.152Z,1239.00
2023-05-12T02:44:45.215Z,1240.00
2023-05-12T02:45:45.237Z,1239.00
2023-05-12T02:46:45.274Z,1238.00
2023-05-12T02:47:45.365Z,1234.00
2023-05-12T02:48:45.408Z,1230.00
2023-05-12T02:49:45.406Z,1234.00
2023-05-12T02:50:45.443Z,1233.00
2023-05-12T02:51:45.487Z,1233.00
2023-05-12T02:52:45.540Z,1229.00
2023-05-12T02:53:45.600Z,1227.00
2023-05-12T02:54:45.633Z,1226.00
2023-05-12T02:55:45.694Z,1229.00
2023-05-12T02:56:45.722Z,1228.00
2023-05-12T02:57:45.749Z,1227.00
2023-05-12T02:58:45.842Z,1228.00
2023-05-12T02:59:45.851Z,1227.00
2023-05-12T03:00:46.100Z,1226.00
2023-05-12T03:01:45.959Z,1229.00
2023-05-12T03:02:46.034Z,1228.00
2023-05-12T03:03:46.193Z,1230.00
2023-05-12T03:04:46.048Z,1229.00
2023-05-12T03:05:46.089Z,1228.00
2023-05-12T03:06:46.128Z,1225.00
2023-05-12T03:07:46.165Z,1224.00
2023-05-12T03:08:46.206Z,1223.00
2023-05-12T03:09:46.241Z,1219.00
2023-05-12T03:10:46.280Z,1214.00
2023-05-12T03:11:46.341Z,1213.00
2023-05-12T03:12:46.366Z,1211.00
2023-05-12T03:13:46.409Z,1206.00
2023-05-12T03:14:46.470Z,1204.00
2023-05-12T03:15:46.513Z,1204.00
2023-05-12T03:16:46.604Z,1203.00
2023-05-12T03:17:46.599Z,1206.00
2023-05-12T03:18:46.679Z,1206.00
2023-05-12T03:19:46.774Z,1207.00
2023-05-12T03:20:46.700Z,1206.00
2023-05-12T03:21:46.744Z,1205.00
2023-05-12T03:22:46.804Z,1202.00
2023-05-12T03:23:46.798Z,1202.00
2023-05-12T03:24:46.845Z,1199.00
2023-05-12T03:25:46.868Z,1198.00
2023-05-12T03:26:46.915Z,1199.00
2023-05-12T03:27:46.945Z,1197.00
2023-05-12T03:28:46.990Z,1195.00
2023-05-12T03:29:47.064Z,1193.00
2023-05-12T03:30:47.070Z,1192.00
2023-05-12T03:31:47.214Z,1192.00
2023-05-12T03:32:47.203Z,1188.00
2023-05-12T03:33:47.206Z,1191.00
2023-05-12T03:34:47.256Z,1192.00
2023-05-12T03:35:47.294Z,1191.00
2023-05-12T03:36:47.338Z,1190.00
2023-05-12T03:37:47.386Z,1191.00
2023-05-12T03:38:47.424Z,1192.00
2023-05-12T03:39:47.472Z,1192.00
2023-05-12T03:40:47.543Z,1196.00
2023-05-12T03:41:47.557Z,1194.00
2023-05-12T03:42:47.609Z,1194.00
2023-05-12T03:43:47.652Z,1193.00
2023-05-12T03:44:47.688Z,1191.00
2023-05-12T03:45:47.726Z,1191.00
2023-05-12T03:46:47.866Z,1191.00
2023-05-12T03:47:47.954Z,1190.00
2023-05-12T03:48:47.852Z,1193.00
2023-05-12T03:49:47.906Z,1196.00
2023-05-12T03:50:47.940Z,1197.00
2023-05-12T03:51:48.007Z,1196.00
2023-05-12T03:52:48.038Z,1195.00
2023-05-12T03:53:48.093Z,1193.00
2023-05-12T03:54:48.133Z,1189.00
2023-05-12T03:55:48.192Z,1190.00
2023-05-12T03:56:48.238Z,1186.00
2023-05-12T03:57:48.227Z,1184.00
2023-05-12T03:58:48.235Z,1182.00
2023-05-12T03:59:48.223Z,1183.00
2023-05-12T04:00:48.220Z,1182.00
2023-05-12T04:01:48.270Z,1181.00
2023-05-12T04:02:48.330Z,1180.00
2023-05-12T04:03:48.275Z,1178.00
2023-05-12T04:04:48.212Z,1174.00
2023-05-12T04:05:48.204Z,1173.00
2023-05-12T04:06:48.202Z,1170.00
2023-05-12T04:07:48.221Z,1168.00
2023-05-12T04:08:48.241Z,1169.00
2023-05-12T04:09:48.290Z,1165.00
2023-05-12T04:10:48.339Z,1163.00
2023-05-12T04:11:48.382Z,1164.00
2023-05-12T04:12:48.424Z,1166.00
2023-05-12T04:13:48.471Z,1167.00
2023-05-12T04:14:48.544Z,1168.00
2023-05-12T04:15:48.573Z,1166.00
2023-05-12T04:16:48.649Z,1165.00
2023-05-12T04:17:48.748Z,1164.00
2023-05-12T04:18:48.772Z,1163.00
2023-05-12T04:19:48.775Z,1162.00
2023-05-12T04:20:48.822Z,1161.00
2023-05-12T04:21:48.873Z,1160.00
2023-05-12T04:22:48.919Z,1157.00
2023-05-12T04:23:49.027Z,1157.00
2023-05-12T04:24:49.031Z,1159.00
2023-05-12T04:25:49.109Z,1158.00
2023-05-12T04:26:49.133Z,1157.00
2023-05-12T04:27:49.179Z,1157.00
2023-05-12T04:28:49.240Z,1158.00
2023-05-12T04:29:49.300Z,1158.00
2023-05-12T04:30:49.334Z,1159.00
2023-05-12T04:31:49.415Z,1159.00
2023-05-12T04:32:49.466Z,1159.00
2023-05-12T04:33:49.479Z,1158.00
2023-05-12T04:34:49.518Z,1159.00
2023-05-12T04:35:49.567Z,1159.00
2023-05-12T04:36:49.621Z,1159.00
2023-05-12T04:37:49.657Z,1155.00
2023-05-12T04:38:49.708Z,1155.00
2023-05-12T04:39:49.749Z,1153.00
2023-05-12T04:40:49.776Z,1153.00
2023-05-12T04:41:49.837Z,1151.00
2023-05-12T04:42:49.866Z,1149.00
2023-05-12T04:44:49.910Z,1145.00
2023-05-12T04:45:49.951Z,1146.00
2023-05-12T04:46:49.909Z,1150.00
2023-05-12T04:47:49.928Z,1150.00
2023-05-12T04:48:49.898Z,1148.00
2023-05-12T04:49:49.876Z,1145.00
2023-05-12T04:50:49.878Z,1143.00
2023-05-12T04:51:49.902Z,1143.00
2023-05-12T04:52:49.874Z,1139.00
2023-05-12T04:53:49.881Z,1138.00
2023-05-12T04:54:49.854Z,1140.00
2023-05-12T04:55:49.853Z,1140.00
2023-05-12T04:56:49.835Z,1139.00
2023-05-12T04:57:49.838Z,1139.00
2023-05-12T04:58:49.836Z,1139.00
2023-05-12T04:59:49.818Z,1139.00
2023-05-12T05:00:49.814Z,1140.00
2023-05-12T05:01:49.843Z,1138.00
2023-05-12T05:02:49.928Z,1134.00
2023-05-12T05:03:49.891Z,1129.00
2023-05-12T05:04:49.810Z,1128.00
2023-05-12T05:05:49.790Z,1128.00
2023-05-12T05:06:49.791Z,1129.00
2023-05-12T05:07:49.781Z,1129.00
2023-05-12T05:08:49.771Z,1129.00
2023-05-12T05:09:49.773Z,1129.00
2023-05-12T05:10:49.774Z,1129.00
2023-05-12T05:11:49.757Z,1125.00
2023-05-12T05:12:49.736Z,1127.00
2023-05-12T05:13:49.737Z,1126.00
2023-05-12T05:14:49.741Z,1124.00
2023-05-12T05:15:49.742Z,1124.00
2023-05-12T05:16:49.765Z,1120.00
2023-05-12T05:17:49.834Z,1120.00
2023-05-12T05:18:49.760Z,1120.00
2023-05-12T05:19:57.492Z,1121.00
2023-05-12T05:20:57.320Z,1121.00
2023-05-12T05:21:50.712Z,1120.00
2023-05-12T05:22:49.723Z,1123.00
2023-05-12T05:23:49.700Z,1131.00
2023-05-12T05:24:51.306Z,1139.00
2023-05-12T05:25:49.671Z,1148.00
2023-05-12T05:26:49.667Z,1171.00
2023-05-12T05:27:49.657Z,1164.00
2023-05-12T05:28:51.301Z,1140.00
2023-05-12T05:29:49.644Z,1157.00
2023-05-12T05:30:49.630Z,1171.00
2023-05-12T05:31:49.739Z,1177.00
2023-05-12T05:32:49.656Z,1183.00
2023-05-12T05:33:49.666Z,1189.00
2023-05-12T05:34:49.604Z,1194.00
2023-05-12T05:35:49.601Z,1192.00
2023-05-12T05:36:49.588Z,1188.00
2023-05-12T05:37:49.586Z,1163.00
2023-05-12T05:38:49.578Z,1013.00
2023-05-12T05:39:49.569Z,1052.00
2023-05-12T05:40:53.744Z,935.00
2023-05-12T05:41:49.591Z,902.00
2023-05-12T05:42:49.626Z,918.00
2023-05-12T05:43:49.656Z,843.00
2023-05-12T05:44:49.598Z,844.00
2023-05-12T05:45:49.633Z,794.00
2023-05-12T05:46:49.623Z,780.00
2023-05-12T05:47:49.675Z,775.00
2023-05-12T05:48:49.617Z,770.00
2023-05-12T05:49:49.612Z,722.00
2023-05-12T05:50:49.617Z,732.00
2023-05-12T05:51:49.617Z,718.00
2023-05-12T05:52:49.625Z,694.00
2023-05-12T05:53:49.627Z,691.00
2023-05-12T05:54:49.620Z,674.00
2023-05-12T05:55:49.648Z,662.00
2023-05-12T05:56:49.633Z,653.00
2023-05-12T05:57:49.698Z,640.00
2023-05-12T05:58:49.656Z,634.00
2023-05-12T05:59:49.655Z,626.00
2023-05-12T06:00:54.309Z,614.00
2023-05-12T06:01:49.695Z,604.00
2023-05-12T06:02:49.836Z,597.00
2023-05-12T06:03:49.848Z,586.00
2023-05-12T06:04:49.697Z,579.00
2023-05-12T06:05:49.697Z,569.00
2023-05-12T06:06:49.714Z,561.00
2023-05-12T06:07:49.741Z,551.00
2023-05-12T06:08:49.741Z,542.00
2023-05-12T06:09:49.756Z,535.00
2023-05-12T06:10:49.795Z,527.00
2023-05-12T06:11:49.794Z,518.00
2023-05-12T06:12:49.810Z,513.00
2023-05-12T06:13:49.859Z,507.00
2023-05-12T06:14:49.940Z,503.00
2023-05-12T06:15:50.012Z,500.00
2023-05-12T06:16:50.151Z,495.00
2023-05-12T06:17:50.194Z,493.00
2023-05-12T06:18:50.356Z,492.00
2023-05-12T06:19:50.283Z,491.00
2023-05-12T06:20:50.368Z,490.00
2023-05-12T06:21:50.433Z,489.00
2023-05-12T06:22:50.520Z,486.00
2023-05-12T06:23:50.589Z,484.00
2023-05-12T06:24:50.659Z,485.00
2023-05-12T06:25:51.354Z,480.00
2023-05-12T06:26:50.798Z,476.00
2023-05-12T06:27:50.881Z,473.00
2023-05-12T06:28:51.087Z,471.00
2023-05-12T06:29:51.044Z,470.00
2023-05-12T06:30:52.033Z,504.00
2023-05-12T06:31:51.185Z,552.00
2023-05-12T06:32:51.101Z,632.00
2023-05-12T06:33:51.095Z,650.00
2023-05-12T06:34:51.088Z,675.00
2023-05-12T06:35:51.096Z,765.00
2023-05-12T06:36:51.779Z,796.00
2023-05-12T06:37:51.177Z,832.00
2023-05-12T06:38:51.125Z,861.00
2023-05-12T06:39:51.083Z,901.00
2023-05-12T06:40:51.082Z,920.00
2023-05-12T06:41:52.099Z,948.00
2023-05-12T06:42:51.085Z,1016.00
2023-05-12T06:43:51.060Z,1036.00
2023-05-12T06:44:51.067Z,1072.00
2023-05-12T06:45:51.104Z,1120.00
2023-05-12T06:46:51.160Z,1144.00
2023-05-12T06:47:51.067Z,1182.00
2023-05-12T06:48:51.005Z,1216.00
2023-05-12T06:49:50.988Z,1243.00
2023-05-12T06:50:50.988Z,1268.00
2023-05-12T06:51:50.969Z,1291.00
2023-05-12T06:52:50.964Z,1314.00
2023-05-12T06:53:50.938Z,1340.00
2023-05-12T06:54:50.916Z,1380.00
2023-05-12T06:55:50.913Z,1406.00
2023-05-12T06:56:50.882Z,1430.00
2023-05-12T06:57:50.875Z,1459.00
2023-05-12T06:58:50.854Z,1517.00
2023-05-12T06:59:50.837Z,1554.00
2023-05-12T07:00:50.829Z,1572.00
2023-05-12T07:01:53.322Z,1584.00
2023-05-12T07:02:51.019Z,1609.00
2023-05-12T07:03:50.976Z,1655.00
2023-05-12T07:04:50.982Z,1697.00
2023-05-12T07:05:51.039Z,1719.00
2023-05-12T07:06:50.997Z,1743.00
2023-05-12T07:07:50.979Z,1786.00
2023-05-12T07:08:50.966Z,1808.00
2023-05-12T07:09:50.941Z,1833.00
2023-05-12T07:10:51.821Z,1859.00
2023-05-12T07:11:51.820Z,1885.00
2023-05-12T07:12:50.876Z,1920.00
2023-05-12T07:13:51.331Z,1972.00
2023-05-12T07:14:50.834Z,1992.00
2023-05-12T07:15:50.902Z,2055.00
2023-05-12T07:16:51.845Z,2092.00
2023-05-12T07:17:50.976Z,2103.00
2023-05-12T07:18:51.185Z,2095.00
2023-05-12T07:19:51.052Z,2094.00
2023-05-12T07:20:51.064Z,2028.00
2023-05-12T07:21:51.076Z,2024.00
2023-05-12T07:22:51.067Z,2014.00
2023-05-12T07:23:51.063Z,1997.00
2023-05-12T07:24:51.092Z,1974.00
2023-05-12T07:25:52.041Z,1860.00
2023-05-12T07:26:51.022Z,1839.00
2023-05-12T07:27:51.037Z,1818.00
2023-05-12T07:28:51.016Z,1774.00
2023-05-12T07:29:51.819Z,1709.00
2023-05-12T07:30:50.960Z,1715.00
2023-05-12T07:31:51.119Z,1722.00
2023-05-12T07:32:51.023Z,1732.00
2023-05-12T07:33:50.928Z,1736.00
2023-05-12T07:34:50.915Z,1740.00
2023-05-12T07:35:50.885Z,1752.00
2023-05-12T07:36:50.891Z,1763.00
2023-05-12T07:37:50.880Z,1777.00
2023-05-12T07:38:50.882Z,1788.00
2023-05-12T07:39:51.846Z,1805.00
2023-05-12T07:40:50.817Z,1823.00
2023-05-12T07:41:50.804Z,1846.00
2023-05-12T07:42:51.332Z,1860.00
2023-05-12T07:43:50.760Z,1872.00
2023-05-12T07:44:50.732Z,1945.00
2023-05-12T07:45:50.745Z,1956.00
2023-05-12T07:46:50.728Z,1970.00
2023-05-12T07:47:50.718Z,1970.00
2023-05-12T07:48:50.683Z,1974.00
2023-05-12T07:49:50.737Z,1977.00
2023-05-12T07:50:50.853Z,1996.00
2023-05-12T07:51:50.799Z,2020.00
2023-05-12T07:52:50.850Z,2042.00
2023-05-12T07:53:51.345Z,2064.00
2023-05-12T07:54:50.922Z,2075.00
2023-05-12T07:55:50.959Z,2086.00
2023-05-12T07:56:50.996Z,2099.00
2023-05-12T07:57:51.078Z,2113.00
2023-05-12T07:58:51.085Z,2132.00
2023-05-12T07:59:51.113Z,2153.00
2023-05-12T08:00:51.157Z,2169.00
2023-05-12T08:01:52.014Z,2189.00
2023-05-12T08:02:51.451Z,2208.00
2023-05-12T08:03:51.581Z,2238.00
2023-05-12T08:04:51.234Z,2260.00
2023-05-12T08:05:51.216Z,2271.00
2023-05-12T08:06:51.216Z,2279.00
2023-05-12T08:07:51.219Z,2295.00
2023-05-12T08:08:51.165Z,2317.00
2023-05-12T08:09:51.156Z,2343.00
2023-05-12T08:10:51.129Z,2357.00
2023-05-12T08:11:51.702Z,2361.00
2023-05-12T08:12:51.109Z,2374.00
2023-05-12T08:13:51.107Z,1653.00
2023-05-12T08:14:51.098Z,1473.00
2023-05-12T08:15:51.112Z,1403.00
2023-05-12T08:16:51.891Z,1122.00
2023-05-12T08:17:51.197Z,1358.00
2023-05-12T08:18:51.269Z,1577.00
2023-05-12T08:19:51.284Z,1602.00
2023-05-12T08:20:51.339Z,1460.00
2023-05-12T08:21:51.372Z,1096.00
2023-05-12T08:22:51.453Z,1150.00
2023-05-12T08:23:51.459Z,948.00
2023-05-12T08:24:51.469Z,1053.00
2023-05-12T08:25:52.396Z,1085.00
2023-05-12T08:26:51.549Z,1230.00
2023-05-12T08:27:52.362Z,1257.00
2023-05-12T08:28:51.680Z,1273.00
2023-05-12T08:29:51.712Z,1307.00
2023-05-12T08:30:52.356Z,1357.00
2023-05-12T08:31:51.768Z,1382.00
2023-05-12T08:32:52.404Z,1405.00
2023-05-12T08:34:09.054Z,1451.00
2023-05-12T08:34:52.896Z,1470.00
2023-05-12T08:35:51.771Z,1494.00
2023-05-12T08:36:51.754Z,1532.00
2023-05-12T08:37:51.734Z,1555.00
2023-05-12T08:38:51.804Z,1577.00
2023-05-12T08:39:51.705Z,1600.00
2023-05-12T08:40:51.693Z,1648.00
2023-05-12T08:41:51.676Z,1674.00
2023-05-12T08:42:51.669Z,1689.00
2023-05-12T08:43:51.637Z,1719.00
2023-05-12T08:44:51.622Z,1748.00
2023-05-12T08:45:51.605Z,1774.00
2023-05-12T08:46:51.660Z,1807.00
2023-05-12T08:47:51.626Z,1835.00
2023-05-12T08:48:51.567Z,1866.00
2023-05-12T08:49:52.641Z,1886.00
2023-05-12T08:50:52.531Z,1918.00
2023-05-12T08:51:57.784Z,1947.00
2023-05-12T08:52:52.476Z,1968.00
2023-05-12T08:53:51.461Z,1989.00
2023-05-12T08:54:56.053Z,2011.00
2023-05-12T08:57:09.056Z,2041.00
2023-05-12T08:57:51.415Z,2119.00
2023-05-12T08:58:51.365Z,2155.00
2023-05-12T08:59:51.327Z,2169.00
2023-05-12T09:00:51.326Z,2193.00
2023-05-12T09:01:51.349Z,2221.00
2023-05-12T09:02:53.973Z,2241.00
2023-05-12T09:03:51.289Z,2259.00
2023-05-12T09:04:51.375Z,2276.00
2023-05-12T09:05:51.373Z,2301.00
2023-05-12T09:06:52.117Z,2329.00
2023-05-12T09:07:51.215Z,2364.00
2023-05-12T09:08:51.225Z,2393.00
2023-05-12T09:09:51.251Z,2414.00
2023-05-12T09:10:51.287Z,2433.00
2023-05-12T09:11:51.289Z,2466.00
2023-05-12T09:12:54.342Z,2499.00
2023-05-12T09:13:51.290Z,2532.00
2023-05-12T09:14:51.261Z,2564.00
2023-05-12T09:15:51.248Z,2584.00
2023-05-12T09:16:51.246Z,2576.00
2023-05-12T09:17:51.241Z,2573.00
2023-05-12T09:18:51.189Z,2571.00
2023-05-12T09:19:51.167Z,2570.00
2023-05-12T09:20:51.250Z,2566.00
2023-05-12T09:21:51.868Z,2522.00
2023-05-12T09:22:51.866Z,2528.00
2023-05-12T09:23:51.092Z,2550.00
2023-05-12T09:25:02.172Z,2572.00
2023-05-12T09:25:51.047Z,2588.00
2023-05-12T09:26:51.115Z,2614.00
2023-05-12T09:27:52.030Z,2640.00
2023-05-12T09:28:51.011Z,2658.00
2023-05-12T09:29:59.265Z,2675.00
2023-05-12T09:30:51.912Z,2685.00
2023-05-12T09:31:50.941Z,2695.00
2023-05-12T09:32:50.911Z,2712.00
2023-05-12T09:33:50.891Z,2738.00
2023-05-12T09:34:50.822Z,2775.00
2023-05-12T09:35:50.800Z,2794.00
2023-05-12T09:36:50.783Z,2810.00
2023-05-12T09:37:57.365Z,2823.00
2023-05-12T09:38:50.734Z,2827.00
2023-05-12T09:39:50.711Z,2840.00
2023-05-12T09:40:50.697Z,2849.00
2023-05-12T09:41:50.660Z,2873.00
2023-05-12T09:42:50.642Z,2886.00
2023-05-12T09:43:50.623Z,2900.00
2023-05-12T09:44:50.596Z,2908.00
2023-05-12T09:45:50.614Z,2916.00
2023-05-12T09:46:50.561Z,2927.00
2023-05-12T09:47:50.558Z,2947.00
2023-05-12T09:48:50.520Z,2969.00
2023-05-12T09:49:50.487Z,2980.00
2023-05-12T09:50:50.535Z,2986.00
2023-05-12T09:51:50.449Z,2993.00
2023-05-12T09:52:53.375Z,3010.00
2023-05-12T09:53:50.396Z,3028.00
2023-05-12T09:54:50.364Z,3039.00
2023-05-12T09:55:50.351Z,3050.00
2023-05-12T09:56:50.333Z,3058.00
2023-05-12T09:57:50.879Z,3078.00
2023-05-12T09:58:50.386Z,3092.00
2023-05-12T09:59:50.340Z,3104.00
2023-05-12T10:01:12.712Z,3113.00
2023-05-12T10:01:51.341Z,3142.00
2023-05-12T10:02:50.308Z,3159.00
2023-05-12T10:03:50.255Z,3175.00
2023-05-12T10:04:50.279Z,3189.00
2023-05-12T10:05:50.202Z,3205.00
2023-05-12T10:06:50.181Z,3216.00
2023-05-12T10:07:50.198Z,3222.00
2023-05-12T10:08:50.174Z,3247.00
2023-05-12T10:09:50.113Z,3255.00
2023-05-12T10:10:50.299Z,3234.00
2023-05-12T10:11:52.060Z,3230.00
2023-05-12T10:12:50.020Z,3220.00
2023-05-12T10:13:49.985Z,3210.00
2023-05-12T10:14:49.970Z,3201.00
2023-05-12T10:15:50.804Z,3199.00
2023-05-12T10:16:49.980Z,3195.00
2023-05-12T10:17:51.543Z,3188.00
2023-05-12T10:19:12.832Z,3163.00
2023-05-12T10:20:12.765Z,3161.00
2023-05-12T10:21:12.786Z,3161.00
2023-05-12T10:22:12.780Z,3164.00
2023-05-12T10:23:12.779Z,3162.00
2023-05-12T10:24:12.787Z,3160.00
2023-05-12T10:25:12.799Z,3154.00
2023-05-12T10:26:12.799Z,3152.00
2023-05-12T10:27:12.797Z,3142.00
2023-05-12T10:28:12.811Z,3134.00
2023-05-12T10:29:12.807Z,3129.00
2023-05-12T10:30:12.902Z,3126.00
2023-05-12T10:31:12.840Z,3118.00
2023-05-12T10:32:12.840Z,3112.00
2023-05-12T10:33:13.334Z,3107.00
2023-05-12T10:34:12.850Z,3095.00
2023-05-12T10:35:12.857Z,3093.00
2023-05-12T10:36:12.857Z,3085.00
2023-05-12T10:37:12.886Z,3074.00
2023-05-12T10:38:12.885Z,3072.00
2023-05-12T10:39:12.914Z,3068.00
2023-05-12T10:40:12.924Z,3066.00
2023-05-12T10:41:12.932Z,3059.00
2023-05-12T10:42:12.925Z,3055.00
2023-05-12T10:43:12.962Z,3044.00
2023-05-12T10:44:13.917Z,3039.00
2023-05-12T10:45:13.053Z,3032.00
2023-05-12T10:46:13.175Z,3027.00
2023-05-12T10:47:13.292Z,3024.00
2023-05-12T10:48:13.186Z,3020.00
2023-05-12T10:49:13.238Z,3017.00
2023-05-12T10:50:13.251Z,3011.00
2023-05-12T10:51:13.840Z,3013.00
2023-05-12T10:52:13.418Z,3009.00
2023-05-12T10:53:13.930Z,3004.00
2023-05-12T10:54:13.440Z,2997.00
2023-05-12T10:55:13.545Z,2990.00
2023-05-12T10:56:13.775Z,2989.00
2023-05-12T10:57:16.043Z,2980.00
2023-05-12T10:58:13.787Z,2976.00
2023-05-12T10:59:14.042Z,2970.00
2023-05-12T11:00:13.846Z,2965.00
2023-05-12T11:01:13.990Z,2963.00
2023-05-12T11:02:14.612Z,2960.00
2023-05-12T11:03:14.612Z,2954.00
2023-05-12T11:04:13.851Z,2945.00
2023-05-12T11:05:13.954Z,2941.00
2023-05-12T11:06:13.981Z,2937.00
2023-05-12T11:07:14.087Z,2932.00
2023-05-12T11:08:14.291Z,2925.00
2023-05-12T11:09:13.988Z,2919.00
2023-05-12T11:10:14.898Z,2910.00
2023-05-12T11:11:13.809Z,2905.00
2023-05-12T11:12:13.686Z,2907.00
2023-05-12T11:13:13.705Z,2908.00
2023-05-12T11:14:13.718Z,2908.00
2023-05-12T11:15:14.339Z,2906.00
2023-05-12T11:16:13.835Z,2904.00
2023-05-12T11:17:13.817Z,2902.00
2023-05-12T11:18:13.794Z,2897.00
2023-05-12T11:19:13.890Z,2893.00
2023-05-12T11:20:13.878Z,2888.00
2023-05-12T11:21:13.767Z,2879.00
2023-05-12T11:22:13.770Z,2873.00
2023-05-12T11:23:13.799Z,2867.00
2023-05-12T11:24:14.586Z,2869.00
2023-05-12T11:25:13.789Z,2869.00
2023-05-12T11:26:13.808Z,2864.00
2023-05-12T11:27:13.808Z,2852.00
2023-05-12T11:28:13.858Z,2847.00
2023-05-12T11:29:13.907Z,2841.00
2023-05-12T11:30:13.993Z,2835.00
2023-05-12T11:31:14.057Z,2833.00
2023-05-12T11:32:14.057Z,2829.00
2023-05-12T11:33:14.181Z,2827.00
2023-05-12T11:34:14.163Z,2820.00
2023-05-12T11:35:14.185Z,2818.00
2023-05-12T11:36:14.223Z,2813.00
2023-05-12T11:37:14.281Z,2804.00
2023-05-12T11:38:14.326Z,2801.00
2023-05-12T11:39:14.366Z,2798.00
2023-05-12T11:40:14.420Z,2790.00
2023-05-12T11:41:14.482Z,2778.00
2023-05-12T11:42:16.305Z,2776.00
2023-05-12T11:43:14.517Z,2775.00
2023-05-12T11:44:14.527Z,2773.00
2023-05-12T11:45:14.549Z,2772.00
2023-05-12T11:46:14.566Z,2767.00
2023-05-12T11:47:14.595Z,2761.00
2023-05-12T11:48:14.687Z,2761.00
2023-05-12T11:49:14.591Z,2758.00
2023-05-12T11:50:14.590Z,2758.00
2023-05-12T11:51:14.595Z,2756.00
2023-05-12T11:52:14.622Z,2749.00
2023-05-12T11:53:14.758Z,2740.00
2023-05-12T11:54:14.618Z,2731.00
2023-05-12T11:55:14.636Z,2724.00
2023-05-12T11:56:14.637Z,2717.00
2023-05-12T11:57:14.634Z,2713.00
2023-05-12T11:58:14.642Z,2714.00
2023-05-12T11:59:14.654Z,2710.00
2023-05-12T12:00:14.664Z,2709.00
2023-05-12T12:01:14.695Z,2706.00
2023-05-12T12:02:14.703Z,2706.00
2023-05-12T12:03:15.086Z,2702.00
2023-05-12T12:04:14.758Z,2701.00
2023-05-12T12:05:14.694Z,2701.00
2023-05-12T12:06:14.835Z,2698.00
2023-05-12T12:07:14.706Z,2693.00
2023-05-12T12:08:14.725Z,2686.00
2023-05-12T12:09:14.735Z,2672.00
2023-05-12T12:10:15.462Z,2671.00